createdAt,value
2018-02-06T00:00:46.085Z,7.83
2018-02-06T00:03:13.525Z,11.03
2018-02-06T00:05:41.738Z,9.43
2018-02-06T00:08:09.255Z,11.50
2018-02-06T00:10:37.471Z,9.10
2018-02-06T00:13:04.920Z,8.93
2018-02-06T00:15:32.451Z,8.60
2018-02-06T00:18:00.720Z,10.90
2018-02-06T00:20:28.925Z,9.50
2018-02-06T00:22:56.380Z,10.63
2018-02-06T00:25:23.824Z,9.83
2018-02-06T00:27:51.265Z,10.23
2018-02-06T00:30:19.522Z,8.10
2018-02-06T00:32:46.961Z,10.47
2018-02-06T00:35:14.418Z,8.97
2018-02-06T00:37:41.916Z,9.30
2018-02-06T00:40:09.365Z,9.40
2018-02-06T00:42:37.584Z,10.23
2018-02-06T00:45:08.697Z,9.63
2018-02-06T00:47:36.912Z,11.33
2018-02-06T00:50:04.351Z,9.30
2018-02-06T00:52:31.796Z,10.47
2018-02-06T00:54:59.267Z,10.57
2018-02-06T00:57:26.713Z,10.80
2018-02-06T00:59:54.161Z,8.77
2018-02-06T01:02:22.361Z,9.60
2018-02-06T01:04:49.797Z,9.97
2018-02-06T01:07:17.250Z,10.67
2018-02-06T01:09:45.467Z,7.60
2018-02-06T01:12:12.998Z,9.43
2018-02-06T01:14:40.443Z,9.70
2018-02-06T01:17:08.653Z,9.13
2018-02-06T01:19:36.126Z,8.73
2018-02-06T01:22:03.574Z,9.97
2018-02-06T01:24:31.024Z,9.17
2018-02-06T01:26:58.464Z,9.73
2018-02-06T01:29:25.922Z,8.60
2018-02-06T01:31:53.369Z,8.93
2018-02-06T01:34:20.813Z,8.20
2018-02-06T01:36:49.018Z,9.70
2018-02-06T01:39:16.461Z,11.50
2018-02-06T01:41:43.902Z,9.40
2018-02-06T01:44:12.113Z,8.83
2018-02-06T01:46:39.563Z,11.60
2018-02-06T01:49:07.008Z,10.43
2018-02-06T01:51:34.464Z,10.57
2018-02-06T01:54:01.906Z,9.83
2018-02-06T01:56:30.105Z,9.60
2018-02-06T01:58:57.558Z,10.10
2018-02-06T02:01:25.013Z,9.63
2018-02-06T02:03:52.503Z,9.83
2018-02-06T02:06:20.672Z,10.93
2018-02-06T02:08:48.124Z,8.60
2018-02-06T02:11:15.581Z,11.07
2018-02-06T02:13:43.028Z,8.03
2018-02-06T02:16:10.486Z,10.00
2018-02-06T02:18:37.934Z,11.83
2018-02-06T02:21:05.375Z,9.80
2018-02-06T02:23:32.823Z,10.87
2018-02-06T02:26:02.025Z,9.40
2018-02-06T02:28:30.246Z,9.33
2018-02-06T02:30:57.699Z,10.40
2018-02-06T02:33:25.137Z,8.90
2018-02-06T02:35:52.585Z,10.73
2018-02-06T02:38:20.037Z,10.13
2018-02-06T02:40:48.251Z,10.47
2018-02-06T04:39:06.553Z,11.13
2018-02-06T04:41:33.990Z,13.53
2018-02-06T04:44:02.203Z,11.70
2018-02-06T04:46:29.669Z,11.20
2018-02-06T04:48:57.144Z,10.40
2018-02-06T04:51:24.572Z,10.77
2018-02-06T04:53:52.036Z,12.20
2018-02-06T04:56:19.459Z,11.20
2018-02-06T04:58:46.903Z,11.43
2018-02-06T05:01:15.115Z,11.17
2018-02-06T05:03:42.565Z,11.63
2018-02-06T05:06:10.012Z,11.20
2018-02-06T05:08:41.148Z,13.03
2018-02-06T05:11:09.353Z,13.43
2018-02-06T05:13:36.798Z,10.87
2018-02-06T05:16:04.257Z,12.70
2018-02-06T05:18:32.717Z,12.13
2018-02-06T05:21:00.925Z,11.70
2018-02-06T05:23:28.374Z,11.80
2018-02-06T05:25:55.818Z,12.20
2018-02-06T05:28:23.255Z,12.30
2018-02-06T05:30:51.474Z,10.83
2018-02-06T05:33:18.913Z,10.97
2018-02-06T05:35:46.359Z,11.83
2018-02-06T05:38:13.810Z,11.67
2018-02-06T05:40:42.024Z,11.10
2018-02-06T05:43:09.452Z,12.57
2018-02-06T05:45:36.891Z,11.53
2018-02-06T05:48:05.105Z,12.70
2018-02-06T05:50:32.547Z,13.00
2018-02-06T05:52:59.984Z,12.17
2018-02-06T05:55:28.193Z,12.27
2018-02-06T05:58:01.935Z,13.33
2018-02-06T06:00:29.368Z,13.40
2018-02-06T06:02:56.812Z,12.17
2018-02-06T06:05:24.265Z,12.37
2018-02-06T06:07:51.693Z,10.60
2018-02-06T06:10:19.909Z,11.90
2018-02-06T06:12:47.346Z,13.17
2018-02-06T06:15:14.788Z,11.83
2018-02-06T06:17:42.993Z,13.60
2018-02-06T06:20:10.453Z,11.53
2018-02-06T06:22:37.905Z,13.00
2018-02-06T06:25:07.266Z,11.93
2018-02-06T06:27:35.488Z,12.10
2018-02-06T06:30:02.939Z,14.27
2018-02-06T06:32:30.379Z,11.97
2018-02-06T06:34:57.817Z,12.83
2018-02-06T06:37:26.033Z,11.23
2018-02-06T06:39:53.470Z,13.73
2018-02-06T06:42:27.079Z,12.97
2018-02-06T06:44:54.514Z,14.70
2018-02-06T06:47:22.719Z,13.77
2018-02-06T06:49:50.149Z,10.97
2018-02-06T06:52:17.594Z,11.53
2018-02-06T06:54:45.802Z,12.00
2018-02-06T06:57:13.257Z,13.27
2018-02-06T06:59:40.695Z,13.97
2018-02-06T07:02:08.145Z,12.27
2018-02-06T07:04:36.358Z,12.30
2018-02-06T07:07:03.813Z,10.77
2018-02-06T07:09:31.253Z,12.63
2018-02-06T07:11:58.707Z,12.50
2018-02-06T07:14:26.145Z,12.97
2018-02-06T07:16:54.357Z,11.70
2018-02-06T07:19:21.796Z,12.13
2018-02-06T07:21:49.250Z,11.53
2018-02-06T07:24:16.679Z,11.93
2018-02-06T07:26:44.897Z,12.17
2018-02-06T07:29:12.909Z,14.20
2018-02-06T07:31:41.317Z,13.23
2018-02-06T07:34:09.540Z,13.33
2018-02-06T07:36:36.966Z,12.23
2018-02-06T07:39:04.416Z,10.00
2018-02-06T07:41:31.878Z,13.77
2018-02-06T07:44:00.128Z,11.43
2018-02-06T07:46:28.343Z,13.13
2018-02-06T07:48:55.774Z,12.07
2018-02-06T07:51:24.027Z,13.63
2018-02-06T07:53:51.505Z,13.93
2018-02-06T07:56:19.716Z,12.57
2018-02-06T07:58:47.180Z,14.97
2018-02-06T08:01:14.624Z,12.23
2018-02-06T08:03:42.062Z,10.67
2018-02-06T08:06:09.502Z,13.33
2018-02-06T08:08:36.960Z,12.47
2018-02-06T08:11:05.185Z,12.40
2018-02-06T08:13:33.389Z,10.60
2018-02-06T08:16:00.836Z,13.13
2018-02-06T08:18:29.353Z,13.10
2018-02-06T08:20:57.571Z,11.83
2018-02-06T08:23:25.013Z,14.53
2018-02-06T08:25:52.444Z,12.60
2018-02-06T08:28:20.646Z,12.80
2018-02-06T08:30:48.092Z,12.87
2018-02-06T08:33:15.533Z,12.47
2018-02-06T08:35:43.747Z,11.40
2018-02-06T08:38:11.263Z,12.03
2018-02-06T08:40:39.479Z,10.60
2018-02-06T08:43:06.929Z,11.10
2018-02-06T08:45:34.386Z,14.40
2018-02-06T08:48:01.809Z,14.07
2018-02-06T08:50:30.013Z,12.53
2018-02-06T08:52:57.462Z,13.20
2018-02-06T08:55:24.889Z,11.90
2018-02-06T08:57:52.330Z,11.37
2018-02-06T09:00:19.930Z,12.43
2018-02-06T09:02:48.150Z,12.67
2018-02-06T09:05:15.583Z,12.07
2018-02-06T09:07:45.068Z,11.03
2018-02-06T09:10:13.268Z,11.67
2018-02-06T09:12:40.726Z,12.40
2018-02-06T09:15:09.276Z,12.97
2018-02-06T09:17:37.488Z,13.57
2018-02-06T09:20:04.926Z,13.50
2018-02-06T09:22:32.376Z,11.70
2018-02-06T09:24:59.811Z,13.37
2018-02-06T09:27:28.029Z,15.00
2018-02-06T09:29:55.463Z,13.80
2018-02-06T09:32:22.901Z,13.10
2018-02-06T09:34:51.119Z,15.23
2018-02-06T09:37:18.556Z,14.97
2018-02-06T09:39:46.002Z,13.10
2018-02-06T09:42:14.201Z,12.90
2018-02-06T09:44:41.637Z,12.30
2018-02-06T09:47:09.077Z,13.33
2018-02-06T09:49:37.279Z,12.63
2018-02-06T09:52:04.724Z,13.37
2018-02-06T09:54:33.017Z,14.20
2018-02-06T09:57:00.454Z,13.50
2018-02-06T09:59:28.668Z,14.10
2018-02-06T10:01:56.112Z,14.70
2018-02-06T10:04:23.548Z,13.70
2018-02-06T10:06:51.106Z,13.53
2018-02-06T10:09:19.324Z,15.17
2018-02-06T10:11:46.793Z,15.73
2018-02-06T10:14:14.240Z,14.50
2018-02-06T10:16:41.728Z,13.90
2018-02-06T10:19:09.205Z,14.67
2018-02-06T10:21:37.411Z,14.50
2018-02-06T10:24:04.848Z,14.43
2018-02-06T10:26:32.319Z,15.07
2018-02-06T10:28:59.841Z,12.90
2018-02-06T10:31:27.294Z,14.30
2018-02-06T10:33:54.725Z,17.50
2018-02-06T10:36:22.171Z,15.43
2018-02-06T10:38:49.605Z,15.40
2018-02-06T10:41:18.116Z,15.70
2018-02-06T10:43:45.557Z,15.70
2018-02-06T10:46:12.981Z,14.60
2018-02-06T10:48:41.214Z,15.43
2018-02-06T10:51:08.652Z,16.20
2018-02-06T10:53:36.094Z,13.67
2018-02-06T10:56:03.536Z,15.07
2018-02-06T10:58:33.052Z,14.50
2018-02-06T11:01:03.345Z,14.80
2018-02-06T11:03:30.780Z,15.17
2018-02-06T11:05:58.219Z,14.53
2018-02-06T11:08:25.676Z,13.70
2018-02-06T11:10:53.172Z,14.87
2018-02-06T11:13:20.643Z,13.87
2018-02-06T11:15:48.847Z,14.50
2018-02-06T11:18:16.287Z,14.80
2018-02-06T11:20:43.741Z,14.60
2018-02-06T11:23:11.941Z,14.87
2018-02-06T11:25:39.378Z,12.80
2018-02-06T11:28:07.840Z,14.53
2018-02-06T11:30:36.052Z,15.03
2018-02-06T11:33:03.486Z,16.10
2018-02-06T11:35:30.924Z,15.60
2018-02-06T11:37:59.135Z,17.00
2018-02-06T11:40:26.572Z,14.10
2018-02-06T11:42:54.843Z,15.73
2018-02-06T11:45:23.079Z,16.60
2018-02-06T11:47:50.527Z,14.57
2018-02-06T11:50:18.027Z,14.20
2018-02-06T11:52:47.223Z,13.30
2018-02-06T11:55:15.440Z,14.50
2018-02-06T11:57:42.878Z,15.60
2018-02-06T12:00:10.316Z,16.07
2018-02-06T12:02:38.515Z,16.00
2018-02-06T12:05:05.947Z,14.40
2018-02-06T12:07:34.140Z,14.60
2018-02-06T12:10:01.573Z,13.73
2018-02-06T12:12:29.793Z,14.07
2018-02-06T12:14:57.253Z,15.70
2018-02-06T12:17:24.692Z,13.57
2018-02-06T12:19:52.120Z,15.80
2018-02-06T12:22:20.403Z,13.60
2018-02-06T12:24:48.616Z,15.03
2018-02-06T12:27:16.071Z,14.27
2018-02-06T12:29:43.515Z,13.00
2018-02-06T12:32:14.667Z,12.97
2018-02-06T12:34:42.155Z,13.50
2018-02-06T12:37:09.605Z,14.43
2018-02-06T12:39:37.113Z,13.70
2018-02-06T12:42:05.314Z,15.33
2018-02-06T12:44:32.855Z,12.50
2018-02-06T12:47:00.293Z,13.10
2018-02-06T12:49:28.496Z,12.57
2018-02-06T12:51:55.935Z,13.40
2018-02-06T12:54:24.276Z,14.47
2018-02-06T12:56:51.727Z,14.03
2018-02-06T12:59:19.407Z,13.93
2018-02-06T13:01:46.851Z,13.93
2018-02-06T13:04:17.685Z,14.57
2018-02-06T13:06:45.979Z,15.73
2018-02-06T13:09:13.423Z,15.67
2018-02-06T13:11:40.866Z,16.33
2018-02-06T13:14:08.310Z,13.97
2018-02-06T13:16:35.751Z,12.97
2018-02-06T13:19:03.191Z,15.17
2018-02-06T13:21:30.637Z,13.90
2018-02-06T13:23:58.063Z,15.80
2018-02-06T13:26:25.514Z,15.00
2018-02-06T13:28:52.964Z,14.40
2018-02-06T13:31:20.406Z,16.60
2018-02-06T13:33:47.842Z,15.43
2018-02-06T13:36:16.316Z,13.77
2018-02-06T13:38:44.525Z,15.20
2018-02-06T13:41:11.969Z,15.83
2018-02-06T13:43:39.405Z,14.60
2018-02-06T13:46:07.675Z,14.90
2018-02-06T13:48:35.889Z,14.47
2018-02-06T13:51:03.330Z,14.60
2018-02-06T13:53:30.758Z,14.47
2018-02-06T13:55:58.974Z,11.60
2018-02-06T13:58:26.409Z,14.33
2018-02-06T14:00:53.843Z,12.93
2018-02-06T14:03:22.057Z,16.47
2018-02-06T14:05:49.495Z,12.43
2018-02-06T14:08:16.941Z,14.40
2018-02-06T14:10:45.152Z,15.33
2018-02-06T14:13:12.740Z,15.73
2018-02-06T14:15:40.196Z,13.77
2018-02-06T14:18:07.649Z,15.30
2018-02-06T14:20:35.093Z,16.10
2018-02-06T14:23:02.544Z,15.13
2018-02-06T14:25:29.991Z,15.07
2018-02-06T14:27:57.454Z,15.23
2018-02-06T14:30:24.901Z,14.90
2018-02-06T14:32:52.356Z,15.27
2018-02-06T14:35:20.836Z,15.67
2018-02-06T14:37:48.277Z,14.90
2018-02-06T14:40:16.499Z,16.83
2018-02-06T14:42:43.952Z,16.70
2018-02-06T14:45:11.393Z,15.57
2018-02-06T14:47:38.819Z,15.40
2018-02-06T14:50:07.043Z,15.80
2018-02-06T14:52:34.475Z,13.30
2018-02-06T14:55:02.095Z,13.50
2018-02-06T14:57:29.529Z,15.23
2018-02-06T14:59:57.005Z,15.90
2018-02-06T15:02:24.431Z,14.60
2018-02-06T15:04:51.876Z,16.00
2018-02-06T15:07:19.319Z,15.30
2018-02-06T15:09:46.769Z,14.83
2018-02-06T15:12:14.201Z,15.60
2018-02-06T15:14:42.425Z,16.50
2018-02-06T15:17:09.875Z,16.50
2018-02-06T15:19:37.293Z,16.67
2018-02-06T15:22:05.513Z,16.03
2018-02-06T15:24:33.953Z,17.93
2018-02-06T15:27:02.166Z,13.30
2018-02-06T15:29:29.618Z,17.67
2018-02-06T15:31:57.066Z,14.17
2018-02-06T15:34:24.500Z,17.33
2018-02-06T15:36:52.719Z,15.10
2018-02-06T15:39:20.154Z,14.87
2018-02-06T15:41:47.844Z,15.80
2018-02-06T15:44:15.290Z,15.17
2018-02-06T15:46:42.965Z,13.60
2018-02-06T15:49:10.440Z,14.43
2018-02-06T15:51:37.980Z,15.60
2018-02-06T15:54:05.692Z,17.00
2018-02-06T15:56:35.004Z,17.17
2018-02-06T15:59:02.456Z,13.77
2018-02-06T16:01:30.664Z,13.70
2018-02-06T16:03:58.105Z,14.57
2018-02-06T16:06:25.579Z,16.07
2018-02-06T16:08:57.339Z,14.40
2018-02-06T16:11:24.810Z,14.50
2018-02-06T16:13:52.264Z,15.87
2018-02-06T16:16:19.728Z,14.60
2018-02-06T16:18:49.266Z,16.57
2018-02-06T16:21:16.744Z,15.50
2018-02-06T16:23:44.959Z,15.83
2018-02-06T16:26:12.436Z,14.80
2018-02-06T16:28:39.929Z,14.00
2018-02-06T16:31:09.161Z,14.30
2018-02-06T16:33:36.608Z,14.27
2018-02-06T16:36:04.120Z,13.53
2018-02-06T16:38:31.514Z,14.37
2018-02-06T16:40:58.961Z,13.90
2018-02-06T16:43:27.175Z,14.43
2018-02-06T16:45:54.645Z,15.07
2018-02-06T16:48:22.093Z,13.13
2018-02-06T16:50:49.541Z,15.80
2018-02-06T16:53:17.001Z,13.67
2018-02-06T16:55:44.453Z,14.63
2018-02-06T16:58:11.916Z,14.90
2018-02-06T17:00:39.363Z,13.97
2018-02-06T17:03:06.819Z,13.77
2018-02-06T17:05:37.527Z,13.90
2018-02-06T17:08:05.751Z,13.53
2018-02-06T17:10:33.190Z,14.10
2018-02-06T17:13:00.661Z,13.27
2018-02-06T17:15:28.124Z,17.33
2018-02-06T17:17:55.576Z,13.30
2018-02-06T17:20:23.015Z,15.00
2018-02-06T17:22:50.696Z,14.33
2018-02-06T17:25:18.228Z,14.10
2018-02-06T17:27:46.656Z,13.90
2018-02-06T17:30:14.164Z,14.83
2018-02-06T17:32:41.697Z,14.97
2018-02-06T17:35:09.434Z,13.57
2018-02-06T17:37:36.932Z,13.27
2018-02-06T17:40:04.444Z,13.07
2018-02-06T17:42:31.952Z,14.13
2018-02-06T17:44:59.830Z,13.47
2018-02-06T17:47:30.551Z,12.17
2018-02-06T17:49:58.890Z,13.47
2018-02-06T17:52:26.460Z,20.27
2018-02-06T17:54:55.025Z,14.53
2018-02-06T17:57:24.280Z,39.40
2018-02-06T17:59:51.941Z,17.53
2018-02-06T18:02:19.435Z,13.20
2018-02-06T18:04:46.887Z,12.43
2018-02-06T18:07:14.350Z,14.23
2018-02-06T18:09:46.469Z,12.67
2018-02-06T18:12:15.103Z,11.80
2018-02-06T18:14:42.635Z,12.20
2018-02-06T18:17:12.241Z,13.87
2018-02-06T18:19:41.637Z,13.87
2018-02-06T18:22:09.438Z,14.10
2018-02-06T18:24:37.877Z,13.60
2018-02-06T18:27:06.390Z,13.60
2018-02-06T18:29:34.358Z,14.47
2018-02-06T18:32:02.857Z,15.00
2018-02-06T18:34:30.389Z,13.53
2018-02-06T18:36:58.023Z,13.20
2018-02-06T18:39:25.808Z,13.93
2018-02-06T18:41:53.239Z,14.30
2018-02-06T18:44:21.573Z,12.63
2018-02-06T18:46:54.905Z,13.27
2018-02-06T18:49:22.344Z,11.97
2018-02-06T18:51:50.116Z,13.77
2018-02-06T18:54:17.670Z,14.93
2018-02-06T18:56:45.129Z,13.00
2018-02-06T18:59:12.645Z,14.60
2018-02-06T19:01:40.093Z,13.73
2018-02-06T19:04:09.924Z,13.70
2018-02-06T19:06:37.700Z,14.00
2018-02-06T19:09:05.154Z,12.97
2018-02-06T19:11:33.380Z,13.10
2018-02-06T19:14:01.765Z,13.43
2018-02-06T19:16:29.209Z,14.70
2018-02-06T19:18:57.438Z,12.53
2018-02-06T19:21:24.929Z,13.63
2018-02-06T19:23:52.473Z,14.60
2018-02-06T19:26:20.017Z,13.90
2018-02-06T19:28:47.494Z,13.27
2018-02-06T19:31:15.180Z,14.43
2018-02-06T19:33:42.641Z,15.43
2018-02-06T19:36:10.077Z,13.93
2018-02-06T19:38:37.592Z,13.33
2018-02-06T19:41:05.107Z,15.53
2018-02-06T19:43:34.917Z,13.37
2018-02-06T19:46:02.715Z,12.83
2018-02-06T19:48:33.796Z,13.53
2018-02-06T19:51:02.392Z,14.90
2018-02-06T19:53:29.859Z,14.30
2018-02-06T19:55:58.016Z,11.90
2018-02-06T19:58:26.251Z,12.63
2018-02-06T20:00:53.735Z,14.73
2018-02-06T20:03:21.289Z,13.63
2018-02-06T20:05:48.755Z,13.03
2018-02-06T20:08:16.894Z,16.03
2018-02-06T20:10:44.341Z,13.07
2018-02-06T20:13:11.835Z,14.30
2018-02-06T20:15:39.317Z,13.77
2018-02-06T20:18:06.896Z,14.63
2018-02-06T20:20:35.139Z,17.57
2018-02-06T20:23:02.621Z,16.37
2018-02-06T20:25:31.351Z,18.70
2018-02-06T20:27:59.560Z,15.90
2018-02-06T20:30:27.101Z,14.93
2018-02-06T20:32:54.609Z,15.00
2018-02-06T20:35:22.054Z,14.53
2018-02-06T20:37:49.556Z,14.10
2018-02-06T20:40:17.047Z,17.27
2018-02-06T20:42:44.785Z,15.13
2018-02-06T20:45:12.288Z,14.80
2018-02-06T20:47:39.772Z,17.93
2018-02-06T20:50:08.220Z,15.07
2018-02-06T20:52:35.768Z,14.80
2018-02-06T20:55:03.475Z,17.10
2018-02-06T20:57:30.960Z,14.53
2018-02-06T20:59:58.660Z,15.70
2018-02-06T21:02:26.106Z,15.80
2018-02-06T21:04:53.941Z,15.40
2018-02-06T21:07:21.415Z,15.80
2018-02-06T21:09:48.984Z,16.07
2018-02-06T21:12:16.419Z,16.13
2018-02-06T21:14:43.913Z,14.87
2018-02-06T21:17:11.557Z,16.70
2018-02-06T21:19:39.861Z,15.67
2018-02-06T21:22:08.314Z,15.10
2018-02-06T21:24:35.772Z,15.60
2018-02-06T21:27:03.457Z,14.90
2018-02-06T21:29:30.911Z,15.87
2018-02-06T21:31:58.362Z,17.50
2018-02-06T21:34:26.581Z,15.10
2018-02-06T21:36:54.791Z,15.03
2018-02-06T21:39:22.432Z,15.33
2018-02-06T21:41:49.879Z,15.47
2018-02-06T21:44:19.090Z,16.37
2018-02-06T21:46:46.545Z,15.97
2018-02-06T21:49:14.850Z,15.63
2018-02-06T21:51:42.392Z,16.90
2018-02-06T21:54:09.836Z,17.37
2018-02-06T21:56:38.041Z,18.43
2018-02-06T21:59:05.497Z,16.17
2018-02-06T22:01:32.957Z,15.67
2018-02-06T22:04:00.426Z,15.73
2018-02-06T22:06:27.870Z,16.80
2018-02-06T22:08:55.316Z,16.37
2018-02-06T22:11:22.764Z,16.47
2018-02-06T22:13:50.214Z,16.77
2018-02-06T22:16:17.674Z,15.43
2018-02-06T22:18:45.232Z,14.30
2018-02-06T22:21:12.690Z,15.30
2018-02-06T22:23:40.148Z,16.33
2018-02-06T22:26:07.601Z,16.73
2018-02-06T22:28:35.057Z,16.10
2018-02-06T22:31:03.272Z,16.83
2018-02-06T22:33:30.708Z,15.57
2018-02-06T22:35:58.171Z,15.53
2018-02-06T22:38:26.421Z,14.67
2018-02-06T22:40:54.641Z,16.07
2018-02-06T22:43:22.089Z,16.77
2018-02-06T22:45:49.545Z,16.13
2018-02-06T22:48:16.991Z,15.80
2018-02-06T22:50:44.445Z,14.87
2018-02-06T22:53:11.894Z,14.67
2018-02-06T22:55:39.408Z,14.13
2018-02-06T22:58:06.860Z,15.37
2018-02-06T23:00:34.322Z,15.37
2018-02-06T23:03:01.771Z,17.30
2018-02-06T23:05:29.305Z,15.47
2018-02-06T23:07:58.786Z,15.63
2018-02-06T23:10:26.241Z,17.40
2018-02-06T23:12:53.684Z,15.80
2018-02-06T23:15:21.886Z,15.57
2018-02-06T23:17:49.333Z,16.57
2018-02-06T23:20:16.810Z,17.33
2018-02-06T23:22:44.281Z,16.33
2018-02-06T23:25:11.731Z,15.13
2018-02-06T23:27:39.178Z,15.87
2018-02-06T23:30:06.641Z,16.37
2018-02-06T23:32:34.083Z,14.50
2018-02-06T23:35:01.519Z,15.80
2018-02-06T23:37:33.885Z,17.13
2018-02-06T23:40:02.108Z,17.63
2018-02-06T23:42:29.566Z,17.50
2018-02-06T23:44:57.019Z,16.90
2018-02-06T23:47:24.462Z,16.43
2018-02-06T23:49:51.928Z,15.40
2018-02-06T23:52:19.372Z,18.33
2018-02-06T23:54:46.813Z,16.57
2018-02-06T23:57:15.028Z,16.97
2018-02-06T23:59:42.494Z,16.23
